Time;durP1;ratioP1;P1;durP2;ratioP2;P2;SDS_P1;SDS_P2;PMS_P1;PMS_P2;Temp;Humidity;BMP_temperature;BMP_pressure;BME280_temperature;BME280_humidity;BME280_pressure;Samples;Min_cycle;Max_cycle;Signal;HPM_P1;HPM_P2
2023/03/07 00:00:38;;;;;;;389.98;146.85;;;-0.20;99.90;;;;;;5053136;28;20036;-77
2023/03/07 00:03:04;;;;;;;123.60;54.13;;;-0.20;99.90;;;;;;5053099;28;20017;-77
2023/03/07 00:05:31;;;;;;;248.68;92.72;;;-0.20;99.90;;;;;;5053262;28;20404;-78
2023/03/07 00:07:57;;;;;;;303.08;117.07;;;-0.20;99.90;;;;;;5054429;28;20025;-77
2023/03/07 00:10:23;;;;;;;264.77;100.63;;;-0.20;99.90;;;;;;5054235;28;20104;-77
2023/03/07 00:12:49;;;;;;;259.30;98.30;;;-0.10;99.90;;;;;;5054194;28;20101;-77
2023/03/07 00:15:14;;;;;;;261.38;98.82;;;-0.20;99.90;;;;;;5054178;28;20031;-77
2023/03/07 00:17:40;;;;;;;345.23;126.78;;;-0.10;99.90;;;;;;5052839;28;20013;-77
2023/03/07 00:20:07;;;;;;;239.88;90.00;;;-0.10;99.90;;;;;;5053991;28;20099;-80
2023/03/07 00:22:34;;;;;;;165.43;69.43;;;-0.10;99.90;;;;;;5053898;28;20083;-80
2023/03/07 00:24:59;;;;;;;183.13;73.47;;;-0.10;99.90;;;;;;5052846;28;20478;-80
2023/03/07 00:27:25;;;;;;;117.72;51.47;;;-0.10;99.90;;;;;;5053887;28;20017;-77
2023/03/07 00:29:50;;;;;;;116.07;54.75;;;-0.10;99.90;;;;;;5054220;28;20033;-77
2023/03/07 00:32:16;;;;;;;227.40;91.88;;;-0.10;99.90;;;;;;5052606;28;20074;-80
2023/03/07 00:34:42;;;;;;;356.17;134.10;;;-0.10;99.90;;;;;;5053739;28;20056;-77
2023/03/07 00:37:07;;;;;;;481.25;196.95;;;-0.10;99.90;;;;;;5053740;28;20029;-77
2023/03/07 00:39:33;;;;;;;372.92;138.82;;;-0.10;99.90;;;;;;5053661;28;20017;-77
2023/03/07 00:41:58;;;;;;;359.15;133.02;;;-0.10;99.90;;;;;;5053579;28;20025;-79
2023/03/07 00:44:25;;;;;;;196.85;82.18;;;-0.10;99.90;;;;;;5052183;28;20033;-77
2023/03/07 00:46:51;;;;;;;176.57;74.47;;;-0.10;99.90;;;;;;5053453;28;20056;-78
2023/03/07 00:49:19;;;;;;;152.32;65.35;;;-0.10;99.90;;;;;;5052546;28;20013;-77
2023/03/07 00:51:45;;;;;;;127.45;56.25;;;-0.10;99.90;;;;;;5053392;28;20028;-77
2023/03/07 00:54:10;;;;;;;88.10;40.05;;;0.00;99.90;;;;;;5052487;28;20028;-79
2023/03/07 00:56:36;;;;;;;110.68;47.08;;;0.00;99.90;;;;;;5052067;28;20013;-78
2023/03/07 00:59:02;;;;;;;101.35;44.83;;;-0.10;99.90;;;;;;5052165;28;20479;-77
2023/03/07 01:01:27;;;;;;;101.22;43.47;;;0.00;99.90;;;;;;5052071;28;20032;-80
2023/03/07 01:03:54;;;;;;;98.25;45.50;;;0.00;99.90;;;;;;5052923;28;20051;-81
2023/03/07 01:06:23;;;;;;;84.55;37.35;;;0.00;99.90;;;;;;5035511;28;20028;-81
2023/03/07 01:08:49;;;;;;;127.75;56.92;;;-0.10;99.90;;;;;;5051854;28;20502;-80
2023/03/07 01:11:15;;;;;;;136.85;58.25;;;-0.10;99.90;;;;;;5052111;28;20049;-78
2023/03/07 01:13:41;;;;;;;153.73;69.65;;;-0.10;99.90;;;;;;5053234;28;20020;-77
2023/03/07 01:16:13;;;;;;;150.57;67.78;;;-0.10;99.90;;;;;;5053264;28;20031;-78
2023/03/07 01:18:39;;;;;;;156.88;70.75;;;0.00;99.90;;;;;;5051798;28;20074;-78
2023/03/07 01:21:33;;;;;;;176.02;79.53;;;0.00;99.90;;;;;;5053081;28;20082;-77
2023/03/07 01:23:59;;;;;;;140.55;67.28;;;0.00;99.90;;;;;;5051981;28;20087;-78
2023/03/07 01:26:30;;;;;;;93.68;41.10;;;0.00;99.90;;;;;;5051842;28;20367;-77
2023/03/07 01:28:58;;;;;;;107.28;50.45;;;0.00;99.90;;;;;;5053109;28;20104;-78
2023/03/07 01:31:24;;;;;;;79.40;38.30;;;0.00;99.90;;;;;;5051728;28;20123;-77
2023/03/07 01:33:52;;;;;;;104.68;48.35;;;-0.10;99.90;;;;;;5051772;28;20479;-77
2023/03/07 01:36:28;;;;;;;82.53;42.30;;;-0.10;99.90;;;;;;5051524;28;20056;-77
2023/03/07 01:39:01;;;;;;;93.65;46.25;;;-0.10;99.90;;;;;;5051720;28;20088;-77
2023/03/07 01:41:30;;;;;;;92.25;47.72;;;-0.10;99.90;;;;;;5051742;28;20410;-77
2023/03/07 01:43:57;;;;;;;79.70;37.90;;;-0.10;99.90;;;;;;5051326;28;20043;-78
2023/03/07 01:46:41;;;;;;;83.00;40.72;;;-0.10;99.90;;;;;;5052665;28;20064;-76
2023/03/07 01:49:13;;;;;;;87.00;43.53;;;-0.10;99.90;;;;;;5051628;28;20479;-77
2023/03/07 01:51:42;;;;;;;95.88;44.97;;;-0.10;99.90;;;;;;5051641;28;20386;-77
2023/03/07 01:54:11;;;;;;;89.35;43.05;;;-0.10;99.90;;;;;;5051446;28;20391;-77
2023/03/07 01:56:39;;;;;;;77.95;39.22;;;-0.10;99.90;;;;;;5052881;28;20382;-78
2023/03/07 01:59:05;;;;;;;89.53;42.50;;;-0.10;99.90;;;;;;5052710;28;20028;-79
2023/03/07 02:01:32;;;;;;;88.55;44.53;;;-0.10;99.90;;;;;;5052698;28;20025;-79
2023/03/07 02:04:10;;;;;;;122.18;55.70;;;-0.10;99.90;;;;;;5052659;28;20025;-80
2023/03/07 02:06:37;;;;;;;176.05;78.38;;;0.00;99.90;;;;;;5052989;28;20028;-79
2023/03/07 02:09:06;;;;;;;224.82;107.65;;;0.00;99.90;;;;;;5051560;28;20471;-78
2023/03/07 02:11:32;;;;;;;187.05;89.53;;;0.00;99.90;;;;;;5052607;28;20029;-78
2023/03/07 02:13:57;;;;;;;175.98;86.97;;;0.00;99.90;;;;;;5052587;28;20044;-78
2023/03/07 02:16:23;;;;;;;122.82;56.25;;;0.10;99.90;;;;;;5055016;28;20039;-78
2023/03/07 02:18:49;;;;;;;131.40;61.55;;;0.10;99.90;;;;;;5056305;28;20029;-78
2023/03/07 02:21:46;;;;;;;137.90;67.80;;;0.10;99.90;;;;;;5055142;28;20493;-77
2023/03/07 02:24:37;;;;;;;93.78;44.72;;;0.10;99.90;;;;;;5054898;28;20040;-78
2023/03/07 02:27:04;;;;;;;93.40;41.25;;;0.10;99.90;;;;;;5055130;28;20020;-78
2023/03/07 02:29:30;;;;;;;96.50;45.63;;;0.10;99.90;;;;;;5054902;28;20029;-78
2023/03/07 02:31:56;;;;;;;98.75;45.38;;;0.10;99.90;;;;;;5056007;28;20028;-78
2023/03/07 02:34:27;;;;;;;86.15;43.92;;;0.10;99.90;;;;;;5054848;28;20024;-76
2023/03/07 02:36:58;;;;;;;88.65;39.67;;;0.10;99.90;;;;;;5055988;28;20028;-78
2023/03/07 02:39:28;;;;;;;77.88;38.97;;;0.10;99.90;;;;;;5054759;28;20184;-77
2023/03/07 02:41:58;;;;;;;80.55;39.47;;;0.10;99.90;;;;;;5055021;28;20024;-76
2023/03/07 02:44:23;;;;;;;83.90;40.75;;;0.10;99.90;;;;;;5055765;28;20041;-77
2023/03/07 02:46:49;;;;;;;94.38;42.13;;;0.20;99.90;;;;;;5054314;28;20124;-77
2023/03/07 02:49:15;;;;;;;82.65;41.75;;;0.20;99.90;;;;;;5054642;28;20025;-78
2023/03/07 02:51:40;;;;;;;89.32;40.08;;;0.10;99.90;;;;;;5055791;28;20083;-77
2023/03/07 02:54:07;;;;;;;82.93;42.05;;;0.20;99.90;;;;;;5054396;28;20052;-77
2023/03/07 02:56:33;;;;;;;85.15;41.40;;;0.20;99.90;;;;;;5055591;28;20052;-77
2023/03/07 02:58:58;;;;;;;80.95;40.10;;;0.20;99.90;;;;;;5055673;28;20482;-76
2023/03/07 03:01:24;;;;;;;77.80;38.88;;;0.20;99.90;;;;;;5055602;28;20025;-79
2023/03/07 03:03:50;;;;;;;81.57;39.65;;;0.20;99.90;;;;;;5055617;28;20036;-76
2023/03/07 03:06:15;;;;;;;80.93;42.45;;;0.20;99.90;;;;;;5055469;28;20036;-76
2023/03/07 03:08:41;;;;;;;72.13;37.15;;;0.20;99.90;;;;;;5054282;28;20490;-79
2023/03/07 03:11:07;;;;;;;74.55;37.65;;;0.20;99.90;;;;;;5054062;28;20104;-78
2023/03/07 03:13:32;;;;;;;73.07;36.20;;;0.30;99.90;;;;;;5055459;28;20021;-77
2023/03/07 03:15:58;;;;;;;76.55;34.85;;;0.20;99.90;;;;;;5055232;28;20110;-80
2023/03/07 03:18:27;;;;;;;68.78;34.33;;;0.20;99.90;;;;;;5054218;28;20025;-77
2023/03/07 03:20:52;;;;;;;61.20;32.72;;;0.20;99.90;;;;;;5055511;28;20142;-77
2023/03/07 03:23:18;;;;;;;78.00;35.15;;;0.20;99.90;;;;;;5055294;28;20047;-77
2023/03/07 03:25:44;;;;;;;75.53;35.85;;;0.20;99.90;;;;;;5054758;28;20480;-77
2023/03/07 03:28:12;;;;;;;69.47;34.80;;;0.20;99.90;;;;;;5053723;28;20025;-77
2023/03/07 03:30:38;;;;;;;77.32;37.47;;;0.20;99.90;;;;;;5053696;28;20028;-77
2023/03/07 03:33:03;;;;;;;71.35;31.98;;;0.20;99.90;;;;;;5053795;28;20017;-77
2023/03/07 03:35:29;;;;;;;72.60;34.38;;;0.20;99.90;;;;;;5053620;28;20028;-77
2023/03/07 03:37:55;;;;;;;73.75;36.58;;;0.20;99.90;;;;;;5053772;28;20079;-79
2023/03/07 03:40:20;;;;;;;68.45;33.45;;;0.20;99.90;;;;;;5053427;28;20071;-80
2023/03/07 03:42:46;;;;;;;82.30;36.22;;;0.20;99.90;;;;;;5053484;28;20422;-77
2023/03/07 03:45:13;;;;;;;74.53;34.17;;;0.10;99.90;;;;;;5053865;28;20029;-78
2023/03/07 03:47:39;;;;;;;68.40;34.38;;;0.10;99.90;;;;;;5054451;28;20045;-78
2023/03/07 03:50:05;;;;;;;76.03;35.30;;;0.20;99.90;;;;;;5053451;28;20039;-78
2023/03/07 03:52:31;;;;;;;74.60;35.15;;;0.10;99.90;;;;;;5053325;28;20032;-78
2023/03/07 03:54:58;;;;;;;74.80;34.05;;;0.10;99.90;;;;;;5053527;28;20133;-78
2023/03/07 03:57:23;;;;;;;80.70;36.20;;;0.10;99.90;;;;;;5053328;28;20498;-77
2023/03/07 03:59:50;;;;;;;73.18;35.53;;;0.10;99.90;;;;;;5054541;28;20387;-77
2023/03/07 04:02:15;;;;;;;69.80;34.47;;;0.10;99.90;;;;;;5053253;28;20017;-77
2023/03/07 04:04:41;;;;;;;74.55;36.67;;;0.10;99.90;;;;;;5054441;28;20391;-77
2023/03/07 04:07:07;;;;;;;69.80;32.95;;;0.10;99.90;;;;;;5054333;28;20066;-78
2023/03/07 04:09:32;;;;;;;74.97;35.88;;;0.10;99.90;;;;;;5054198;28;20096;-77
2023/03/07 04:11:58;;;;;;;73.60;34.42;;;0.10;99.90;;;;;;5053019;28;20021;-78
2023/03/07 04:14:24;;;;;;;70.53;35.25;;;0.00;99.90;;;;;;5053001;28;20025;-78
2023/03/07 04:16:49;;;;;;;69.60;33.85;;;0.00;99.90;;;;;;5052780;28;20021;-77
2023/03/07 04:19:15;;;;;;;67.85;32.42;;;0.00;99.90;;;;;;5054078;28;20386;-77
2023/03/07 04:21:41;;;;;;;73.10;35.28;;;0.00;99.90;;;;;;5053987;28;20021;-79
2023/03/07 04:24:07;;;;;;;65.22;33.40;;;0.00;99.90;;;;;;5053998;28;20403;-77
2023/03/07 04:26:34;;;;;;;69.22;33.10;;;0.00;99.90;;;;;;5052651;28;20012;-77
2023/03/07 04:29:00;;;;;;;77.13;33.92;;;0.10;99.90;;;;;;5052808;28;20475;-77
2023/03/07 04:31:27;;;;;;;68.75;35.22;;;0.00;99.90;;;;;;5052564;28;20020;-80
2023/03/07 04:33:54;;;;;;;68.32;34.60;;;0.00;99.90;;;;;;5052604;28;20036;-77
2023/03/07 04:36:22;;;;;;;73.63;35.53;;;0.00;99.90;;;;;;5053733;28;20082;-78
2023/03/07 04:38:49;;;;;;;69.25;33.13;;;0.00;99.90;;;;;;5051721;28;20134;-77
2023/03/07 04:41:24;;;;;;;72.63;33.17;;;0.00;99.90;;;;;;5053643;28;20032;-77
2023/03/07 04:43:50;;;;;;;72.10;32.78;;;0.00;99.90;;;;;;5053469;28;20025;-78
2023/03/07 04:46:17;;;;;;;68.25;33.75;;;0.00;99.90;;;;;;5053373;28;20465;-80
2023/03/07 04:48:43;;;;;;;68.10;32.70;;;0.00;99.90;;;;;;5052212;28;20032;-78
2023/03/07 04:51:08;;;;;;;64.32;31.17;;;0.00;99.90;;;;;;5052239;28;20032;-78
2023/03/07 04:53:34;;;;;;;65.90;30.25;;;0.00;99.90;;;;;;5053608;28;20398;-78
2023/03/07 04:56:01;;;;;;;61.85;31.15;;;0.00;99.90;;;;;;5052261;28;20029;-79
2023/03/07 04:58:28;;;;;;;70.45;33.83;;;0.00;99.90;;;;;;5052093;28;20021;-79
2023/03/07 05:00:57;;;;;;;70.15;33.63;;;0.00;99.90;;;;;;5052146;28;20013;-78
2023/03/07 05:03:25;;;;;;;62.63;30.45;;;0.00;99.90;;;;;;5053389;28;20025;-80
2023/03/07 05:05:51;;;;;;;71.20;32.92;;;0.00;99.90;;;;;;5053081;28;20116;-79
2023/03/07 05:08:17;;;;;;;63.17;31.92;;;0.00;99.90;;;;;;5051975;28;20021;-79
2023/03/07 05:10:43;;;;;;;76.85;34.70;;;0.00;99.90;;;;;;5051903;28;20032;-80
2023/03/07 05:13:10;;;;;;;63.55;31.45;;;0.00;99.90;;;;;;5051981;28;20028;-80
2023/03/07 05:15:35;;;;;;;82.05;33.92;;;0.00;99.90;;;;;;5053157;28;20017;-78
2023/03/07 05:18:01;;;;;;;65.07;31.00;;;0.00;99.90;;;;;;5051908;28;20387;-79
2023/03/07 05:20:28;;;;;;;68.50;31.98;;;0.00;99.90;;;;;;5053027;28;20032;-78
2023/03/07 05:22:55;;;;;;;62.95;31.83;;;0.00;99.90;;;;;;5053595;28;20517;-77
2023/03/07 05:25:21;;;;;;;65.30;31.63;;;0.00;99.90;;;;;;5070483;28;20482;-79
2023/03/07 05:27:47;;;;;;;65.57;30.65;;;0.00;99.90;;;;;;5072179;28;20028;-78
2023/03/07 05:30:13;;;;;;;68.78;32.42;;;0.00;99.90;;;;;;5071808;28;20090;-77
2023/03/07 05:32:39;;;;;;;60.63;30.35;;;0.00;99.90;;;;;;5057363;28;20045;-79
2023/03/07 05:35:07;;;;;;;71.80;34.85;;;0.10;99.90;;;;;;5060583;28;20494;-80
2023/03/07 05:37:33;;;;;;;62.85;31.30;;;0.00;99.90;;;;;;5054349;28;20052;-78
2023/03/07 05:39:59;;;;;;;62.33;30.80;;;0.10;99.90;;;;;;5053064;28;20467;-78
2023/03/07 05:42:24;;;;;;;71.93;34.67;;;0.00;99.90;;;;;;5056131;28;20020;-78
2023/03/07 05:44:50;;;;;;;70.65;31.13;;;0.00;99.90;;;;;;5069521;28;20048;-77
2023/03/07 05:47:15;;;;;;;64.80;32.25;;;0.00;99.90;;;;;;5071432;28;20036;-78
2023/03/07 05:49:41;;;;;;;66.55;31.40;;;0.00;99.90;;;;;;5073147;28;20033;-77
2023/03/07 05:52:07;;;;;;;63.47;31.45;;;0.00;99.90;;;;;;5076955;28;20099;-78
2023/03/07 05:54:32;;;;;;;71.10;31.27;;;0.10;99.90;;;;;;5077200;28;20363;-77
2023/03/07 05:56:58;;;;;;;57.80;27.95;;;0.10;99.90;;;;;;5075651;28;20028;-79
2023/03/07 05:59:23;;;;;;;62.63;28.75;;;0.10;99.90;;;;;;5075531;28;20032;-79
2023/03/07 06:01:49;;;;;;;68.65;29.20;;;0.10;99.90;;;;;;5075445;28;20363;-77
2023/03/07 06:04:15;;;;;;;61.22;30.40;;;0.20;99.90;;;;;;5075225;28;20032;-77
2023/03/07 06:06:40;;;;;;;68.22;32.67;;;0.20;99.90;;;;;;5076522;28;20025;-77
2023/03/07 06:09:06;;;;;;;64.38;29.55;;;0.20;99.90;;;;;;5075193;28;20025;-78
2023/03/07 06:11:32;;;;;;;59.10;27.27;;;0.30;99.90;;;;;;5075083;28;20028;-78
2023/03/07 06:13:58;;;;;;;57.67;28.20;;;0.30;99.90;;;;;;5059229;28;20079;-79
2023/03/07 06:16:23;;;;;;;57.95;27.48;;;0.30;99.90;;;;;;5058593;28;20025;-77
2023/03/07 06:18:49;;;;;;;62.47;30.23;;;0.40;99.90;;;;;;5075923;28;20437;-78
2023/03/07 06:21:16;;;;;;;59.60;26.77;;;0.40;99.90;;;;;;5061512;28;20032;-78
2023/03/07 06:23:42;;;;;;;54.17;27.15;;;0.40;99.90;;;;;;5054919;28;20017;-78
2023/03/07 06:26:09;;;;;;;58.10;26.65;;;0.40;99.90;;;;;;5061012;28;20391;-77
2023/03/07 06:28:35;;;;;;;58.47;28.25;;;0.40;99.90;;;;;;5056233;28;20057;-78
2023/03/07 06:31:08;;;;;;;59.60;29.17;;;0.40;99.90;;;;;;5056686;28;20016;-77
2023/03/07 06:33:34;;;;;;;51.58;27.40;;;0.50;99.90;;;;;;5063839;28;20085;-77
2023/03/07 06:36:04;;;;;;;52.13;26.85;;;0.60;99.90;;;;;;5065893;28;20025;-78
2023/03/07 06:38:30;;;;;;;58.13;28.45;;;0.70;99.90;;;;;;5063097;28;20024;-79
2023/03/07 06:40:56;;;;;;;56.88;28.08;;;0.70;99.90;;;;;;5064098;28;20028;-78
2023/03/07 06:43:24;;;;;;;54.70;27.98;;;0.70;99.90;;;;;;5059698;28;20037;-79
2023/03/07 06:45:50;;;;;;;61.42;28.58;;;0.80;99.90;;;;;;5062397;28;20821;-79
2023/03/07 06:48:16;;;;;;;55.05;27.20;;;0.90;99.90;;;;;;5058217;28;20102;-79
2023/03/07 06:50:43;;;;;;;54.13;27.17;;;1.00;99.90;;;;;;5074271;28;20066;-76
2023/03/07 06:53:08;;;;;;;62.88;30.83;;;1.10;99.90;;;;;;5075791;28;20498;-78
2023/03/07 06:55:34;;;;;;;66.82;29.92;;;1.20;99.90;;;;;;5071175;28;20064;-77
2023/03/07 06:57:59;;;;;;;52.75;27.67;;;1.30;99.90;;;;;;5063959;28;20024;-77
2023/03/07 07:00:25;;;;;;;49.83;24.90;;;1.30;99.90;;;;;;5065419;28;20029;-77
2023/03/07 07:02:51;;;;;;;56.70;26.15;;;1.30;99.90;;;;;;5063313;28;20017;-77
2023/03/07 07:05:17;;;;;;;56.50;28.75;;;1.30;99.90;;;;;;5058890;28;20036;-77
2023/03/07 07:07:42;;;;;;;55.75;25.50;;;1.30;99.90;;;;;;5054216;28;20108;-78
2023/03/07 07:10:09;;;;;;;48.28;26.67;;;1.40;99.90;;;;;;5054104;28;20029;-77
2023/03/07 07:12:34;;;;;;;46.60;24.35;;;1.50;99.90;;;;;;5055248;28;20025;-78
2023/03/07 07:15:04;;;;;;;49.75;23.02;;;1.50;99.90;;;;;;5054050;28;20021;-78
2023/03/07 07:17:39;;;;;;;52.17;25.35;;;1.60;99.90;;;;;;5054333;28;20023;-78
2023/03/07 07:20:23;;;;;;;47.28;23.13;;;1.70;99.90;;;;;;5055023;28;20018;-78
2023/03/07 07:22:49;;;;;;;44.42;22.90;;;1.80;99.90;;;;;;5033507;28;20053;-78
2023/03/07 07:25:15;;;;;;;47.25;23.08;;;1.90;99.90;;;;;;5069026;28;20071;-78
2023/03/07 07:27:40;;;;;;;42.65;22.23;;;2.00;99.90;;;;;;5074133;28;20478;-77
2023/03/07 07:30:07;;;;;;;42.05;20.13;;;2.00;99.90;;;;;;5075038;28;20025;-78
2023/03/07 07:32:32;;;;;;;33.35;19.25;;;2.00;99.90;;;;;;5073403;28;20661;-77
2023/03/07 07:34:58;;;;;;;42.95;21.48;;;2.00;99.90;;;;;;5072741;28;20103;-78
2023/03/07 07:37:24;;;;;;;44.13;23.40;;;2.10;99.90;;;;;;5052617;28;20125;-77
2023/03/07 07:39:50;;;;;;;39.83;21.23;;;2.10;99.90;;;;;;5051758;28;20029;-78
2023/03/07 07:42:16;;;;;;;44.42;22.10;;;2.20;99.90;;;;;;5051654;28;20016;-78
2023/03/07 07:44:42;;;;;;;32.33;18.63;;;2.20;99.90;;;;;;5051454;28;20036;-79
2023/03/07 07:47:08;;;;;;;34.28;19.05;;;2.30;99.90;;;;;;5050470;28;20141;-77
2023/03/07 07:49:34;;;;;;;40.85;20.02;;;2.30;99.90;;;;;;5051912;28;20530;-78
2023/03/07 07:52:00;;;;;;;31.65;17.75;;;2.40;99.90;;;;;;5051409;28;20017;-78
2023/03/07 07:54:26;;;;;;;32.30;16.67;;;2.50;99.90;;;;;;5053313;28;20378;-78
2023/03/07 07:56:52;;;;;;;36.13;19.55;;;2.50;99.90;;;;;;5034753;28;20028;-78
2023/03/07 07:59:18;;;;;;;36.25;19.70;;;2.60;99.90;;;;;;5051245;28;20490;-79
2023/03/07 08:01:44;;;;;;;31.70;18.13;;;2.70;99.90;;;;;;5052843;28;20458;-79
2023/03/07 08:04:10;;;;;;;34.10;17.48;;;2.80;99.90;;;;;;5070952;28;20025;-77
2023/03/07 08:06:35;;;;;;;28.90;16.67;;;2.90;99.90;;;;;;5072384;28;20074;-78
2023/03/07 08:09:02;;;;;;;29.80;16.35;;;2.90;99.90;;;;;;5072539;28;20028;-78
2023/03/07 08:11:27;;;;;;;31.55;15.02;;;2.90;99.90;;;;;;5073775;28;20017;-78
2023/03/07 08:13:53;;;;;;;31.30;15.55;;;3.00;99.90;;;;;;5071957;28;20482;-78
2023/03/07 08:16:21;;;;;;;27.17;15.77;;;3.20;99.90;;;;;;5074212;28;20031;-78
2023/03/07 08:18:49;;;;;;;24.92;15.15;;;3.20;99.70;;;;;;5074119;28;20500;-79
2023/03/07 08:21:15;;;;;;;28.45;16.50;;;3.30;98.10;;;;;;5072724;28;20043;-79
2023/03/07 08:23:40;;;;;;;25.42;14.27;;;3.50;98.70;;;;;;5072801;28;20020;-78
2023/03/07 08:26:08;;;;;;;22.92;12.48;;;3.50;95.90;;;;;;5072607;28;20068;-79
2023/03/07 08:28:38;;;;;;;27.15;13.43;;;3.60;91.30;;;;;;5062975;28;20550;-79
2023/03/07 08:31:19;;;;;;;25.23;12.90;;;3.70;91.20;;;;;;5052525;28;20013;-79
2023/03/07 08:33:46;;;;;;;20.48;12.32;;;3.70;88.90;;;;;;5052330;28;20707;-78
2023/03/07 08:36:11;;;;;;;21.58;12.27;;;3.60;88.00;;;;;;5051801;28;20033;-78
2023/03/07 08:38:37;;;;;;;23.77;13.27;;;3.50;84.60;;;;;;5051522;28;20408;-78
2023/03/07 08:41:05;;;;;;;24.17;12.60;;;3.40;83.90;;;;;;5051206;28;20029;-77
2023/03/07 08:43:32;;;;;;;21.48;12.05;;;3.40;85.00;;;;;;5052578;28;20470;-77
2023/03/07 08:45:58;;;;;;;22.70;13.27;;;3.40;84.40;;;;;;5050674;28;20040;-78
2023/03/07 08:48:25;;;;;;;21.95;11.98;;;3.50;86.80;;;;;;5052288;28;20112;-79
2023/03/07 08:50:52;;;;;;;20.50;11.35;;;3.40;84.10;;;;;;5052196;28;20121;-77
2023/03/07 08:53:18;;;;;;;19.55;12.13;;;3.40;82.80;;;;;;5051100;28;20021;-77
2023/03/07 08:55:44;;;;;;;16.77;9.95;;;3.60;81.10;;;;;;5051678;28;20029;-78
2023/03/07 08:58:10;;;;;;;20.63;11.77;;;3.60;80.80;;;;;;5050355;28;20028;-78
2023/03/07 09:00:36;;;;;;;19.17;11.55;;;3.80;80.80;;;;;;5050213;28;20471;-79
2023/03/07 09:03:02;;;;;;;17.67;10.25;;;3.70;79.00;;;;;;5051567;28;20021;-77
2023/03/07 09:05:28;;;;;;;22.88;11.90;;;3.80;79.50;;;;;;5051446;28;20044;-78
2023/03/07 09:07:54;;;;;;;20.23;11.02;;;3.80;79.00;;;;;;5052037;28;20387;-78
2023/03/07 09:10:21;;;;;;;20.90;11.80;;;3.90;80.20;;;;;;5051925;28;20485;-77
2023/03/07 09:12:47;;;;;;;25.13;12.65;;;4.00;78.90;;;;;;5053347;28;20390;-78
2023/03/07 09:15:13;;;;;;;19.40;11.73;;;4.10;79.60;;;;;;5052075;28;20021;-77
2023/03/07 09:17:39;;;;;;;19.67;11.52;;;4.20;79.90;;;;;;5052067;28;20023;-78
2023/03/07 09:20:05;;;;;;;22.67;12.68;;;4.20;78.20;;;;;;5053222;28;20028;-77
2023/03/07 09:22:31;;;;;;;20.15;12.10;;;4.30;78.10;;;;;;5051896;28;20021;-79
2023/03/07 09:24:57;;;;;;;23.20;12.45;;;4.40;77.90;;;;;;5051544;28;20405;-78
2023/03/07 09:27:23;;;;;;;22.70;10.88;;;4.50;77.10;;;;;;5053180;28;20105;-78
2023/03/07 09:29:48;;;;;;;22.17;12.05;;;4.50;78.10;;;;;;5051840;28;20100;-79
2023/03/07 09:32:14;;;;;;;19.05;12.05;;;4.50;75.00;;;;;;5051686;28;20028;-79
2023/03/07 09:34:40;;;;;;;21.95;12.07;;;4.40;75.40;;;;;;5051765;28;20017;-79
2023/03/07 09:37:06;;;;;;;25.88;13.77;;;4.40;73.70;;;;;;5052882;28;20021;-79
2023/03/07 09:39:31;;;;;;;20.42;11.45;;;4.50;74.80;;;;;;5053299;28;20036;-79
2023/03/07 09:42:21;;;;;;;18.20;11.23;;;4.60;75.00;;;;;;5051769;28;20103;-78
2023/03/07 09:45:01;;;;;;;21.20;12.15;;;4.60;72.60;;;;;;5052975;28;20039;-79
2023/03/07 09:47:39;;;;;;;20.15;12.18;;;4.60;73.30;;;;;;5051707;28;20055;-79
2023/03/07 09:50:14;;;;;;;22.23;12.23;;;4.70;75.50;;;;;;5051802;28;20372;-79
2023/03/07 09:52:41;;;;;;;18.80;11.07;;;4.70;72.30;;;;;;5051712;28;20087;-79
2023/03/07 09:55:17;;;;;;;20.33;12.65;;;4.80;73.40;;;;;;5051741;28;20021;-79
2023/03/07 09:57:50;;;;;;;21.40;11.88;;;4.80;72.80;;;;;;5051755;28;20119;-79
2023/03/07 10:00:24;;;;;;;22.08;12.55;;;4.90;72.80;;;;;;5051675;28;20088;-78
2023/03/07 10:03:15;;;;;;;25.15;12.23;;;4.90;71.60;;;;;;5052865;28;20032;-77
2023/03/07 10:05:48;;;;;;;24.63;11.10;;;5.00;71.40;;;;;;5053166;28;20453;-79
2023/03/07 10:08:20;;;;;;;17.80;10.80;;;4.90;69.90;;;;;;5051584;28;20025;-78
2023/03/07 10:11:12;;;;;;;24.10;13.25;;;4.80;70.30;;;;;;5051502;28;20033;-78
2023/03/07 10:13:53;;;;;;;19.05;10.88;;;4.80;71.10;;;;;;5049352;28;20072;-79
2023/03/07 10:16:39;;;;;;;19.90;12.23;;;4.70;70.70;;;;;;5051275;28;20041;-78
2023/03/07 10:19:23;;;;;;;23.75;11.63;;;4.70;70.50;;;;;;5051566;28;20466;-77
2023/03/07 10:22:16;;;;;;;19.08;10.48;;;4.70;70.70;;;;;;5052790;28;20486;-77
2023/03/07 10:24:59;;;;;;;16.35;11.07;;;4.60;70.20;;;;;;5052752;28;20029;-78
2023/03/07 10:27:28;;;;;;;19.45;10.35;;;4.50;71.40;;;;;;5052689;28;20017;-79
2023/03/07 10:29:57;;;;;;;17.23;11.02;;;4.40;71.40;;;;;;5051378;28;20062;-77
2023/03/07 10:32:46;;;;;;;19.67;10.45;;;4.30;70.80;;;;;;5052581;28;20108;-78
2023/03/07 10:35:14;;;;;;;22.95;12.18;;;4.20;70.70;;;;;;5067781;28;20041;-78
2023/03/07 10:37:49;;;;;;;20.40;10.98;;;4.10;70.60;;;;;;5054109;28;20021;-77
2023/03/07 10:40:17;;;;;;;20.42;11.27;;;4.00;69.70;;;;;;5056344;28;20482;-79
2023/03/07 10:42:42;;;;;;;18.35;10.60;;;4.10;71.30;;;;;;5056199;28;20021;-78
2023/03/07 10:45:13;;;;;;;20.60;10.82;;;4.30;72.20;;;;;;5054652;28;20501;-77
2023/03/07 10:47:38;;;;;;;25.23;12.38;;;4.40;71.90;;;;;;5055833;28;20049;-79
2023/03/07 10:50:07;;;;;;;18.13;9.90;;;4.50;71.00;;;;;;5054733;28;20112;-77
2023/03/07 10:52:39;;;;;;;20.27;10.57;;;4.50;70.10;;;;;;5054589;28;20021;-77
2023/03/07 10:55:35;;;;;;;17.40;10.85;;;4.50;68.70;;;;;;5056414;28;20103;-79
2023/03/07 10:58:20;;;;;;;18.55;10.02;;;4.60;69.80;;;;;;5054660;28;20156;-77
2023/03/07 11:00:58;;;;;;;19.30;11.10;;;4.70;69.00;;;;;;5055847;28;20021;-80
2023/03/07 11:03:46;;;;;;;24.42;10.30;;;4.60;67.00;;;;;;5054520;28;20395;-79
2023/03/07 11:06:34;;;;;;;23.90;11.65;;;4.50;65.90;;;;;;5054361;28;20098;-77
2023/03/07 11:09:28;;;;;;;17.90;9.82;;;4.50;66.00;;;;;;5054343;28;20075;-79
2023/03/07 11:12:09;;;;;;;15.00;9.43;;;4.50;66.70;;;;;;5055702;28;20120;-78
2023/03/07 11:15:14;;;;;;;16.45;8.48;;;4.60;66.40;;;;;;5054284;28;20430;-77
2023/03/07 11:17:44;;;;;;;14.63;9.68;;;4.60;66.20;;;;;;5055496;28;20075;-78
2023/03/07 11:20:20;;;;;;;17.55;8.80;;;4.80;66.90;;;;;;5055465;28;20033;-77
2023/03/07 11:22:46;;;;;;;17.73;9.75;;;4.80;65.40;;;;;;5054239;28;20367;-78
2023/03/07 11:25:20;;;;;;;15.63;9.45;;;5.00;66.70;;;;;;5055308;28;20112;-78
2023/03/07 11:27:49;;;;;;;17.10;9.60;;;5.10;66.50;;;;;;5055585;28;20471;-80
2023/03/07 11:30:32;;;;;;;15.52;9.35;;;5.10;66.20;;;;;;5053539;28;20360;-78
2023/03/07 11:33:20;;;;;;;15.20;9.15;;;5.10;66.70;;;;;;5053587;28;20120;-79
2023/03/07 11:35:59;;;;;;;16.40;10.38;;;5.10;65.60;;;;;;5053620;28;20025;-79
2023/03/07 11:38:53;;;;;;;18.63;9.57;;;5.00;66.30;;;;;;5055357;28;20021;-77
2023/03/07 11:41:28;;;;;;;;;;;5.00;66.80;;;;;;5055353;28;20419;-78
2023/03/07 11:44:16;;;;;;;17.88;9.32;;;5.10;66.20;;;;;;5053657;28;19905;-79
2023/03/07 11:46:47;;;;;;;17.98;9.60;;;5.00;65.40;;;;;;5053312;28;20045;-78
2023/03/07 11:49:21;;;;;;;15.02;8.93;;;5.00;64.70;;;;;;5054865;28;20033;-79
2023/03/07 11:52:13;;;;;;;16.67;9.45;;;5.10;65.40;;;;;;5053480;28;20074;-78
2023/03/07 11:54:38;;;;;;;16.45;9.30;;;5.00;63.10;;;;;;5054838;28;20021;-78
2023/03/07 11:57:25;;;;;;;17.50;8.65;;;5.00;63.40;;;;;;5054614;28;20052;-78
2023/03/07 12:00:16;;;;;;;13.48;8.65;;;5.10;63.50;;;;;;5053446;28;20021;-79
2023/03/07 12:02:57;;;;;;;18.63;9.70;;;5.10;63.50;;;;;;5053284;28;20025;-79
2023/03/07 12:05:44;;;;;;;18.38;10.02;;;5.20;63.50;;;;;;5053203;28;20407;-77
2023/03/07 12:08:29;;;;;;;17.17;9.45;;;5.10;63.20;;;;;;5053594;28;20036;-78
2023/03/07 12:10:55;;;;;;;18.65;9.70;;;5.10;63.60;;;;;;5053442;28;20053;-78
2023/03/07 12:13:23;;;;;;;17.27;8.50;;;5.00;63.00;;;;;;5053252;28;20102;-77
2023/03/07 12:16:01;;;;;;;18.90;9.77;;;5.10;63.50;;;;;;5054262;28;20387;-77
2023/03/07 12:18:49;;;;;;;17.80;9.70;;;5.20;63.70;;;;;;5053412;28;20029;-79
2023/03/07 12:21:39;;;;;;;16.80;9.68;;;5.20;62.90;;;;;;5052926;28;20021;-77
2023/03/07 12:24:23;;;;;;;19.92;10.02;;;5.20;63.00;;;;;;5054181;28;20032;-79
2023/03/07 12:26:57;;;;;;;15.98;10.05;;;5.20;63.70;;;;;;5052926;28;20017;-78
2023/03/07 12:29:36;;;;;;;16.67;9.52;;;5.20;63.10;;;;;;5052884;28;20036;-77
2023/03/07 12:32:10;;;;;;;19.50;9.98;;;5.20;63.20;;;;;;5052635;28;20051;-77
2023/03/07 12:34:49;;;;;;;19.40;9.80;;;5.20;63.30;;;;;;5054061;28;20025;-78
2023/03/07 12:37:32;;;;;;;16.35;8.48;;;5.40;63.60;;;;;;5053989;28;20025;-78
2023/03/07 12:40:03;;;;;;;16.33;9.07;;;5.50;63.70;;;;;;5054139;28;20486;-78
2023/03/07 12:42:54;;;;;;;17.75;9.93;;;5.50;63.40;;;;;;5052537;28;20024;-77
2023/03/07 12:45:37;;;;;;;17.63;9.30;;;5.60;62.80;;;;;;5052449;28;20513;-77
2023/03/07 12:48:10;;;;;;;;;;;5.60;63.00;;;;;;5052991;28;20403;-78